Terminal Aerodrome Forecast
Issued by NWS Rapid City, SD

Home | Current Version | Previous Version | Graphics & Text | Print | Product List | Glossary On
Versions: 1 2 3 4 5 6 7 8 9 10 11 12 13
000
FTUS43 KUNR 212300
TAFRAP
TAF
KRAP 212320Z 2200/2224 14010KT P6SM SCT250
     FM221500 17015KT P6SM BKN250=

USA.gov is the U.S. government's official web portal to all federal, state and local government web resources and services.